sensor_id;sensor_type;location;lat;lon;timestamp;pressure;altitude;pressure_sealevel;temperature;humidity
35908;BME280;22003;50.320;8.054;2023-12-28T00:00:21;99373.47;;;8.48;61.61
35908;BME280;22003;50.320;8.054;2023-12-28T00:02:46;99379.84;;;8.45;61.20
35908;BME280;22003;50.320;8.054;2023-12-28T00:05:11;99393.53;;;8.51;61.62
35908;BME280;22003;50.320;8.054;2023-12-28T00:07:37;99395.88;;;8.66;61.34
35908;BME280;22003;50.320;8.054;2023-12-28T00:10:03;99394.53;;;8.61;61.65
35908;BME280;22003;50.320;8.054;2023-12-28T00:12:29;99396.75;;;8.78;61.42
35908;BME280;22003;50.320;8.054;2023-12-28T00:14:54;99340.66;;;8.28;62.36
35908;BME280;22003;50.320;8.054;2023-12-28T00:17:19;99389.75;;;8.77;61.98
35908;BME280;22003;50.320;8.054;2023-12-28T00:19:44;99391.22;;;8.92;62.02
35908;BME280;22003;50.320;8.054;2023-12-28T00:22:09;99403.97;;;8.98;62.38
35908;BME280;22003;50.320;8.054;2023-12-28T00:24:35;99396.53;;;9.04;62.38
35908;BME280;22003;50.320;8.054;2023-12-28T00:27:00;99398.81;;;8.97;62.70
35908;BME280;22003;50.320;8.054;2023-12-28T00:29:25;99388.25;;;9.08;62.27
35908;BME280;22003;50.320;8.054;2023-12-28T00:31:51;99379.34;;;9.09;62.08
35908;BME280;22003;50.320;8.054;2023-12-28T00:34:16;99364.13;;;9.13;62.41
35908;BME280;22003;50.320;8.054;2023-12-28T00:36:41;99372.25;;;8.98;62.83
35908;BME280;22003;50.320;8.054;2023-12-28T00:39:06;99372.88;;;9.24;62.70
35908;BME280;22003;50.320;8.054;2023-12-28T00:41:32;99378.41;;;9.21;63.08
35908;BME280;22003;50.320;8.054;2023-12-28T00:43:57;99398.81;;;9.08;64.05
35908;BME280;22003;50.320;8.054;2023-12-28T00:46:22;99395.94;;;8.89;64.95
35908;BME280;22003;50.320;8.054;2023-12-28T00:48:47;99408.69;;;9.17;64.43
35908;BME280;22003;50.320;8.054;2023-12-28T00:51:13;99395.94;;;9.00;64.87
35908;BME280;22003;50.320;8.054;2023-12-28T00:53:39;99418.44;;;9.28;65.36
35908;BME280;22003;50.320;8.054;2023-12-28T00:56:04;99428.00;;;9.07;66.21
35908;BME280;22003;50.320;8.054;2023-12-28T00:58:29;99433.44;;;9.16;66.95
35908;BME280;22003;50.320;8.054;2023-12-28T01:00:54;99439.66;;;9.26;66.95
35908;BME280;22003;50.320;8.054;2023-12-28T01:03:21;99453.88;;;9.48;66.02
35908;BME280;22003;50.320;8.054;2023-12-28T01:05:47;99462.41;;;9.63;66.19
35908;BME280;22003;50.320;8.054;2023-12-28T01:08:15;99453.50;;;9.64;66.67
35908;BME280;22003;50.320;8.054;2023-12-28T01:10:40;99455.31;;;9.30;67.93
35908;BME280;22003;50.320;8.054;2023-12-28T01:13:06;99449.06;;;9.53;66.85
35908;BME280;22003;50.320;8.054;2023-12-28T01:15:31;99470.34;;;9.51;67.71
35908;BME280;22003;50.320;8.054;2023-12-28T01:17:56;99474.94;;;9.61;67.09
35908;BME280;22003;50.320;8.054;2023-12-28T01:20:22;99483.09;;;9.69;67.13
35908;BME280;22003;50.320;8.054;2023-12-28T01:22:47;99480.31;;;9.48;68.00
35908;BME280;22003;50.320;8.054;2023-12-28T01:25:14;99506.91;;;9.58;67.92
35908;BME280;22003;50.320;8.054;2023-12-28T01:27:40;99448.91;;;9.10;68.37
35908;BME280;22003;50.320;8.054;2023-12-28T01:30:06;99504.34;;;9.34;69.54
35908;BME280;22003;50.320;8.054;2023-12-28T01:32:31;99505.19;;;9.34;69.45
35908;BME280;22003;50.320;8.054;2023-12-28T01:34:56;99513.09;;;9.23;70.48
35908;BME280;22003;50.320;8.054;2023-12-28T01:37:22;99516.72;;;9.22;70.58
35908;BME280;22003;50.320;8.054;2023-12-28T01:39:48;99533.28;;;9.24;71.82
35908;BME280;22003;50.320;8.054;2023-12-28T01:42:13;99542.44;;;9.31;71.62
35908;BME280;22003;50.320;8.054;2023-12-28T01:44:38;99522.22;;;9.19;72.09
35908;BME280;22003;50.320;8.054;2023-12-28T01:47:04;99526.16;;;9.13;72.86
35908;BME280;22003;50.320;8.054;2023-12-28T01:49:30;99550.09;;;9.23;72.81
35908;BME280;22003;50.320;8.054;2023-12-28T01:51:55;99538.25;;;9.05;73.71
35908;BME280;22003;50.320;8.054;2023-12-28T01:54:22;99553.56;;;9.12;74.65
35908;BME280;22003;50.320;8.054;2023-12-28T01:56:47;99531.25;;;8.92;75.51
35908;BME280;22003;50.320;8.054;2023-12-28T01:59:14;99570.09;;;9.03;75.98
35908;BME280;22003;50.320;8.054;2023-12-28T02:01:40;99555.16;;;8.91;77.70
35908;BME280;22003;50.320;8.054;2023-12-28T02:04:06;99564.59;;;8.82;79.55
35908;BME280;22003;50.320;8.054;2023-12-28T02:06:31;99561.28;;;8.67;80.97
35908;BME280;22003;50.320;8.054;2023-12-28T02:08:56;99547.25;;;8.67;82.24
35908;BME280;22003;50.320;8.054;2023-12-28T02:11:22;99550.28;;;8.50;84.04
35908;BME280;22003;50.320;8.054;2023-12-28T02:13:47;99537.00;;;8.38;84.99
35908;BME280;22003;50.320;8.054;2023-12-28T02:16:16;99536.88;;;8.40;85.52
35908;BME280;22003;50.320;8.054;2023-12-28T02:18:44;99555.38;;;8.40;85.50
35908;BME280;22003;50.320;8.054;2023-12-28T02:21:13;99545.31;;;8.32;85.94
35908;BME280;22003;50.320;8.054;2023-12-28T02:23:38;99547.03;;;8.33;86.23
35908;BME280;22003;50.320;8.054;2023-12-28T02:26:04;99543.97;;;8.39;86.85
35908;BME280;22003;50.320;8.054;2023-12-28T02:28:29;99549.75;;;8.44;86.88
35908;BME280;22003;50.320;8.054;2023-12-28T02:30:54;99538.06;;;8.36;87.46
35908;BME280;22003;50.320;8.054;2023-12-28T02:33:38;99545.31;;;8.32;87.67
35908;BME280;22003;50.320;8.054;2023-12-28T02:36:11;99542.78;;;8.31;87.37
35908;BME280;22003;50.320;8.054;2023-12-28T02:38:37;99550.94;;;8.28;87.94
35908;BME280;22003;50.320;8.054;2023-12-28T02:41:03;99549.50;;;8.11;88.25
35908;BME280;22003;50.320;8.054;2023-12-28T02:43:29;99530.16;;;8.23;88.23
35908;BME280;22003;50.320;8.054;2023-12-28T02:45:54;99533.84;;;8.20;88.36
35908;BME280;22003;50.320;8.054;2023-12-28T02:48:20;99531.53;;;8.16;88.45
35908;BME280;22003;50.320;8.054;2023-12-28T02:50:45;99544.06;;;8.25;88.51
35908;BME280;22003;50.320;8.054;2023-12-28T02:53:11;99533.25;;;8.17;88.50
35908;BME280;22003;50.320;8.054;2023-12-28T02:55:36;99535.63;;;8.20;88.11
35908;BME280;22003;50.320;8.054;2023-12-28T02:58:02;99535.34;;;8.12;88.53
35908;BME280;22003;50.320;8.054;2023-12-28T03:00:27;99553.59;;;8.28;88.50
35908;BME280;22003;50.320;8.054;2023-12-28T03:02:53;99554.94;;;8.20;88.69
35908;BME280;22003;50.320;8.054;2023-12-28T03:05:18;99556.47;;;8.12;89.39
35908;BME280;22003;50.320;8.054;2023-12-28T03:07:43;99563.63;;;8.23;89.24
35908;BME280;22003;50.320;8.054;2023-12-28T03:10:09;99525.88;;;7.97;90.17
35908;BME280;22003;50.320;8.054;2023-12-28T03:12:36;99546.63;;;8.14;90.36
35908;BME280;22003;50.320;8.054;2023-12-28T03:15:01;99551.59;;;8.18;90.08
35908;BME280;22003;50.320;8.054;2023-12-28T03:17:27;99541.78;;;8.08;90.99
35908;BME280;22003;50.320;8.054;2023-12-28T03:19:54;99546.06;;;8.21;91.22
35908;BME280;22003;50.320;8.054;2023-12-28T03:22:19;99561.31;;;8.18;92.13
35908;BME280;22003;50.320;8.054;2023-12-28T03:24:44;99554.69;;;8.00;92.88
35908;BME280;22003;50.320;8.054;2023-12-28T03:27:10;99552.47;;;8.06;93.73
35908;BME280;22003;50.320;8.054;2023-12-28T03:29:36;99522.69;;;8.04;93.51
35908;BME280;22003;50.320;8.054;2023-12-28T03:32:01;99520.81;;;7.93;94.36
35908;BME280;22003;50.320;8.054;2023-12-28T03:34:27;99541.91;;;8.06;94.81
35908;BME280;22003;50.320;8.054;2023-12-28T03:36:54;99545.69;;;8.15;94.54
35908;BME280;22003;50.320;8.054;2023-12-28T03:39:19;99576.09;;;8.08;94.68
35908;BME280;22003;50.320;8.054;2023-12-28T03:41:45;99584.97;;;8.07;95.07
35908;BME280;22003;50.320;8.054;2023-12-28T03:44:10;99562.16;;;8.18;94.88
35908;BME280;22003;50.320;8.054;2023-12-28T03:46:35;99536.63;;;7.93;94.91
35908;BME280;22003;50.320;8.054;2023-12-28T03:49:01;99558.44;;;8.21;95.97
35908;BME280;22003;50.320;8.054;2023-12-28T03:51:26;99563.97;;;8.05;96.29
35908;BME280;22003;50.320;8.054;2023-12-28T03:53:51;99568.03;;;8.35;96.45
35908;BME280;22003;50.320;8.054;2023-12-28T03:56:21;99581.97;;;8.37;95.99
35908;BME280;22003;50.320;8.054;2023-12-28T03:58:47;99596.38;;;8.07;96.10
35908;BME280;22003;50.320;8.054;2023-12-28T04:01:12;99591.50;;;8.14;97.29
35908;BME280;22003;50.320;8.054;2023-12-28T04:03:37;99599.41;;;8.39;97.16
35908;BME280;22003;50.320;8.054;2023-12-28T04:06:03;99602.91;;;8.02;97.47
35908;BME280;22003;50.320;8.054;2023-12-28T04:08:28;99617.91;;;7.88;99.24
35908;BME280;22003;50.320;8.054;2023-12-28T04:10:53;99614.22;;;7.91;100.00
35908;BME280;22003;50.320;8.054;2023-12-28T04:13:18;99609.03;;;7.89;100.00
35908;BME280;22003;50.320;8.054;2023-12-28T04:15:44;99609.88;;;8.03;100.00
35908;BME280;22003;50.320;8.054;2023-12-28T04:18:09;99624.53;;;7.81;100.00
35908;BME280;22003;50.320;8.054;2023-12-28T04:20:34;99618.13;;;7.73;100.00
35908;BME280;22003;50.320;8.054;2023-12-28T04:22:59;99629.28;;;7.76;100.00
35908;BME280;22003;50.320;8.054;2023-12-28T04:25:25;99605.97;;;7.96;100.00
35908;BME280;22003;50.320;8.054;2023-12-28T04:27:50;99628.75;;;7.97;100.00
35908;BME280;22003;50.320;8.054;2023-12-28T04:30:15;99622.75;;;7.82;100.00
35908;BME280;22003;50.320;8.054;2023-12-28T04:32:40;99631.81;;;7.65;100.00
35908;BME280;22003;50.320;8.054;2023-12-28T04:35:06;99630.13;;;7.64;100.00
35908;BME280;22003;50.320;8.054;2023-12-28T04:37:32;99630.34;;;7.61;100.00
35908;BME280;22003;50.320;8.054;2023-12-28T04:39:58;99623.34;;;7.60;100.00
35908;BME280;22003;50.320;8.054;2023-12-28T04:42:23;99621.56;;;7.60;100.00
35908;BME280;22003;50.320;8.054;2023-12-28T04:44:48;99620.53;;;7.50;100.00
35908;BME280;22003;50.320;8.054;2023-12-28T04:47:13;99613.88;;;7.45;100.00
35908;BME280;22003;50.320;8.054;2023-12-28T04:49:39;99607.53;;;7.34;100.00
35908;BME280;22003;50.320;8.054;2023-12-28T04:52:04;99608.91;;;7.40;100.00
35908;BME280;22003;50.320;8.054;2023-12-28T04:54:30;99594.13;;;7.37;100.00
35908;BME280;22003;50.320;8.054;2023-12-28T04:56:55;99594.53;;;7.31;100.00
35908;BME280;22003;50.320;8.054;2023-12-28T04:59:21;99602.97;;;7.36;100.00
35908;BME280;22003;50.320;8.054;2023-12-28T05:01:46;99593.25;;;7.24;100.00
35908;BME280;22003;50.320;8.054;2023-12-28T05:04:11;99585.69;;;7.32;100.00
35908;BME280;22003;50.320;8.054;2023-12-28T05:06:37;99609.75;;;7.40;100.00
35908;BME280;22003;50.320;8.054;2023-12-28T05:09:03;99597.09;;;7.33;100.00
35908;BME280;22003;50.320;8.054;2023-12-28T05:11:29;99590.81;;;7.21;100.00
35908;BME280;22003;50.320;8.054;2023-12-28T05:13:54;99604.03;;;7.34;100.00
35908;BME280;22003;50.320;8.054;2023-12-28T05:16:20;99604.13;;;7.32;100.00
35908;BME280;22003;50.320;8.054;2023-12-28T05:18:46;99603.75;;;7.38;100.00
35908;BME280;22003;50.320;8.054;2023-12-28T05:21:14;99585.78;;;7.18;100.00
35908;BME280;22003;50.320;8.054;2023-12-28T05:23:39;99605.72;;;7.35;100.00
35908;BME280;22003;50.320;8.054;2023-12-28T05:26:05;99601.84;;;7.40;100.00
35908;BME280;22003;50.320;8.054;2023-12-28T05:28:31;99597.50;;;7.39;100.00
35908;BME280;22003;50.320;8.054;2023-12-28T05:30:56;99594.47;;;7.33;100.00
35908;BME280;22003;50.320;8.054;2023-12-28T05:33:24;99590.75;;;7.23;100.00
35908;BME280;22003;50.320;8.054;2023-12-28T05:35:49;99601.81;;;7.28;100.00
35908;BME280;22003;50.320;8.054;2023-12-28T05:38:14;99592.00;;;7.17;100.00
35908;BME280;22003;50.320;8.054;2023-12-28T05:40:39;99586.19;;;7.12;100.00
35908;BME280;22003;50.320;8.054;2023-12-28T05:43:05;99582.78;;;7.10;100.00
35908;BME280;22003;50.320;8.054;2023-12-28T05:45:30;99589.53;;;7.14;100.00
35908;BME280;22003;50.320;8.054;2023-12-28T05:47:56;99600.19;;;7.12;100.00
35908;BME280;22003;50.320;8.054;2023-12-28T05:50:21;99600.09;;;7.14;100.00
35908;BME280;22003;50.320;8.054;2023-12-28T05:52:47;99607.25;;;7.12;100.00
35908;BME280;22003;50.320;8.054;2023-12-28T05:55:12;99611.69;;;7.11;100.00
35908;BME280;22003;50.320;8.054;2023-12-28T05:57:37;99603.13;;;7.08;100.00
35908;BME280;22003;50.320;8.054;2023-12-28T06:00:03;99613.56;;;7.09;100.00
35908;BME280;22003;50.320;8.054;2023-12-28T06:02:29;99607.56;;;7.07;100.00
35908;BME280;22003;50.320;8.054;2023-12-28T06:04:55;99603.91;;;7.23;100.00
35908;BME280;22003;50.320;8.054;2023-12-28T06:07:20;99600.56;;;7.33;100.00
35908;BME280;22003;50.320;8.054;2023-12-28T06:09:45;99593.69;;;7.44;100.00
35908;BME280;22003;50.320;8.054;2023-12-28T06:12:11;99587.94;;;7.51;100.00
35908;BME280;22003;50.320;8.054;2023-12-28T06:14:36;99590.44;;;7.40;100.00
35908;BME280;22003;50.320;8.054;2023-12-28T06:17:02;99595.31;;;7.46;100.00
35908;BME280;22003;50.320;8.054;2023-12-28T06:19:27;99591.31;;;7.53;100.00
35908;BME280;22003;50.320;8.054;2023-12-28T06:21:52;99590.06;;;7.84;100.00
35908;BME280;22003;50.320;8.054;2023-12-28T06:24:19;99595.72;;;7.53;100.00
35908;BME280;22003;50.320;8.054;2023-12-28T06:26:44;99610.47;;;7.43;100.00
35908;BME280;22003;50.320;8.054;2023-12-28T06:29:10;99610.69;;;7.39;100.00
35908;BME280;22003;50.320;8.054;2023-12-28T06:31:36;99619.34;;;7.41;100.00
35908;BME280;22003;50.320;8.054;2023-12-28T06:34:03;99569.88;;;6.93;100.00
35908;BME280;22003;50.320;8.054;2023-12-28T06:36:28;99629.84;;;7.29;100.00
35908;BME280;22003;50.320;8.054;2023-12-28T06:38:54;99628.00;;;7.56;100.00
35908;BME280;22003;50.320;8.054;2023-12-28T06:41:19;99629.44;;;7.35;100.00
35908;BME280;22003;50.320;8.054;2023-12-28T06:43:44;99626.69;;;7.36;100.00
35908;BME280;22003;50.320;8.054;2023-12-28T06:46:10;99619.75;;;7.35;100.00
35908;BME280;22003;50.320;8.054;2023-12-28T06:48:35;99621.19;;;7.27;100.00
35908;BME280;22003;50.320;8.054;2023-12-28T06:51:00;99627.28;;;7.14;100.00
35908;BME280;22003;50.320;8.054;2023-12-28T06:53:26;99626.25;;;7.17;100.00
35908;BME280;22003;50.320;8.054;2023-12-28T06:55:51;99633.38;;;7.15;100.00
35908;BME280;22003;50.320;8.054;2023-12-28T06:58:16;99627.50;;;7.11;100.00
35908;BME280;22003;50.320;8.054;2023-12-28T07:00:41;99629.41;;;7.22;100.00
35908;BME280;22003;50.320;8.054;2023-12-28T07:03:09;99620.88;;;7.19;100.00
35908;BME280;22003;50.320;8.054;2023-12-28T07:05:34;99620.75;;;7.20;100.00
35908;BME280;22003;50.320;8.054;2023-12-28T07:07:59;99637.00;;;7.27;100.00
35908;BME280;22003;50.320;8.054;2023-12-28T07:10:24;99636.34;;;7.50;100.00
35908;BME280;22003;50.320;8.054;2023-12-28T07:12:50;99619.34;;;7.41;99.80
35908;BME280;22003;50.320;8.054;2023-12-28T07:15:15;99610.03;;;6.96;100.00
35908;BME280;22003;50.320;8.054;2023-12-28T07:17:40;99627.28;;;7.14;100.00
35908;BME280;22003;50.320;8.054;2023-12-28T07:20:06;99619.09;;;6.92;100.00
35908;BME280;22003;50.320;8.054;2023-12-28T07:22:34;99628.44;;;6.83;100.00
35908;BME280;22003;50.320;8.054;2023-12-28T07:24:59;99639.28;;;7.46;100.00
35908;BME280;22003;50.320;8.054;2023-12-28T07:27:25;99640.84;;;7.08;100.00
35908;BME280;22003;50.320;8.054;2023-12-28T07:29:50;99629.72;;;7.18;100.00
35908;BME280;22003;50.320;8.054;2023-12-28T07:32:15;99643.31;;;7.11;100.00
35908;BME280;22003;50.320;8.054;2023-12-28T07:34:40;99652.34;;;7.07;100.00
35908;BME280;22003;50.320;8.054;2023-12-28T07:37:06;99649.28;;;6.86;100.00
35908;BME280;22003;50.320;8.054;2023-12-28T07:39:31;99655.34;;;6.74;100.00
35908;BME280;22003;50.320;8.054;2023-12-28T07:41:56;99663.09;;;6.63;100.00
35908;BME280;22003;50.320;8.054;2023-12-28T07:44:21;99656.41;;;6.43;100.00
35908;BME280;22003;50.320;8.054;2023-12-28T07:46:47;99667.44;;;6.35;100.00
35908;BME280;22003;50.320;8.054;2023-12-28T07:49:12;99656.25;;;6.46;100.00
35908;BME280;22003;50.320;8.054;2023-12-28T07:51:37;99663.69;;;6.40;100.00
35908;BME280;22003;50.320;8.054;2023-12-28T07:54:02;99644.53;;;6.23;100.00
35908;BME280;22003;50.320;8.054;2023-12-28T07:56:28;99647.22;;;6.36;100.00
35908;BME280;22003;50.320;8.054;2023-12-28T07:58:54;99649.19;;;6.32;100.00
35908;BME280;22003;50.320;8.054;2023-12-28T08:01:19;99658.81;;;6.33;100.00
35908;BME280;22003;50.320;8.054;2023-12-28T08:03:45;99658.66;;;6.49;100.00
35908;BME280;22003;50.320;8.054;2023-12-28T08:06:10;99658.38;;;6.68;100.00
35908;BME280;22003;50.320;8.054;2023-12-28T08:08:37;99660.88;;;6.84;100.00
35908;BME280;22003;50.320;8.054;2023-12-28T08:11:03;99651.13;;;6.99;100.00
35908;BME280;22003;50.320;8.054;2023-12-28T08:13:28;99643.44;;;6.96;100.00
35908;BME280;22003;50.320;8.054;2023-12-28T08:15:53;99649.19;;;6.88;100.00
35908;BME280;22003;50.320;8.054;2023-12-28T08:18:19;99643.72;;;7.18;100.00
35908;BME280;22003;50.320;8.054;2023-12-28T08:20:44;99646.91;;;7.23;100.00
35908;BME280;22003;50.320;8.054;2023-12-28T08:23:10;99659.66;;;7.17;99.86
35908;BME280;22003;50.320;8.054;2023-12-28T08:25:35;99660.72;;;7.27;99.97
35908;BME280;22003;50.320;8.054;2023-12-28T08:28:00;99663.28;;;7.28;99.71
35908;BME280;22003;50.320;8.054;2023-12-28T08:30:26;99664.34;;;7.38;98.55
35908;BME280;22003;50.320;8.054;2023-12-28T08:32:52;99668.28;;;7.46;99.09
35908;BME280;22003;50.320;8.054;2023-12-28T08:35:18;99665.66;;;7.58;98.19
35908;BME280;22003;50.320;8.054;2023-12-28T08:37:43;99662.34;;;7.42;97.70
35908;BME280;22003;50.320;8.054;2023-12-28T08:40:09;99658.41;;;7.22;98.09
35908;BME280;22003;50.320;8.054;2023-12-28T08:42:34;99666.34;;;7.35;98.62
35908;BME280;22003;50.320;8.054;2023-12-28T08:44:59;99674.63;;;7.56;98.29
35908;BME280;22003;50.320;8.054;2023-12-28T08:47:24;99683.88;;;7.49;97.55
35908;BME280;22003;50.320;8.054;2023-12-28T08:49:50;99684.72;;;7.49;97.12
35908;BME280;22003;50.320;8.054;2023-12-28T08:52:15;99682.25;;;7.33;97.78
35908;BME280;22003;50.320;8.054;2023-12-28T08:54:40;99689.25;;;7.47;97.71
35908;BME280;22003;50.320;8.054;2023-12-28T08:57:06;99689.38;;;7.58;96.92
35908;BME280;22003;50.320;8.054;2023-12-28T08:59:31;99683.88;;;7.49;97.00
35908;BME280;22003;50.320;8.054;2023-12-28T09:01:56;99673.81;;;7.93;94.43
35908;BME280;22003;50.320;8.054;2023-12-28T09:04:22;99673.09;;;8.17;92.70
35908;BME280;22003;50.320;8.054;2023-12-28T09:06:47;99676.97;;;7.99;93.12
35908;BME280;22003;50.320;8.054;2023-12-28T09:09:12;99675.41;;;8.09;92.90
35908;BME280;22003;50.320;8.054;2023-12-28T09:11:37;99679.84;;;7.96;92.62
35908;BME280;22003;50.320;8.054;2023-12-28T09:14:03;99679.31;;;8.16;92.20
35908;BME280;22003;50.320;8.054;2023-12-28T09:16:28;99692.50;;;8.16;92.16
35908;BME280;22003;50.320;8.054;2023-12-28T09:18:53;99695.13;;;8.03;91.67
35908;BME280;22003;50.320;8.054;2023-12-28T09:21:19;99696.41;;;7.98;91.98
35908;BME280;22003;50.320;8.054;2023-12-28T09:23:45;99708.44;;;8.14;92.18
35908;BME280;22003;50.320;8.054;2023-12-28T09:26:11;99687.38;;;8.40;90.18
35908;BME280;22003;50.320;8.054;2023-12-28T09:28:36;99692.41;;;8.30;90.35
35908;BME280;22003;50.320;8.054;2023-12-28T09:31:02;99702.53;;;8.49;90.13
35908;BME280;22003;50.320;8.054;2023-12-28T09:33:28;99705.06;;;8.63;88.96
35908;BME280;22003;50.320;8.054;2023-12-28T09:35:53;99705.28;;;8.73;88.21
35908;BME280;22003;50.320;8.054;2023-12-28T09:38:21;99709.34;;;8.77;86.71
35908;BME280;22003;50.320;8.054;2023-12-28T09:40:47;99706.03;;;8.62;86.98
35908;BME280;22003;50.320;8.054;2023-12-28T09:43:30;99689.34;;;8.49;87.80
35908;BME280;22003;50.320;8.054;2023-12-28T09:46:05;99687.72;;;9.09;86.25
35908;BME280;22003;50.320;8.054;2023-12-28T09:48:32;99699.00;;;8.87;85.47
35908;BME280;22003;50.320;8.054;2023-12-28T09:50:57;99703.22;;;8.89;86.55
35908;BME280;22003;50.320;8.054;2023-12-28T09:53:26;99703.69;;;9.07;86.04
35908;BME280;22003;50.320;8.054;2023-12-28T09:55:52;99706.06;;;9.23;86.94
35908;BME280;22003;50.320;8.054;2023-12-28T09:58:18;99688.47;;;9.35;85.61
35908;BME280;22003;50.320;8.054;2023-12-28T10:00:46;99699.44;;;9.88;83.46
35908;BME280;22003;50.320;8.054;2023-12-28T10:03:15;99693.31;;;9.87;80.79
35908;BME280;22003;50.320;8.054;2023-12-28T10:05:41;99688.13;;;9.74;82.30
35908;BME280;22003;50.320;8.054;2023-12-28T10:08:07;99694.97;;;9.77;82.12
35908;BME280;22003;50.320;8.054;2023-12-28T10:10:32;99693.78;;;9.81;82.46
35908;BME280;22003;50.320;8.054;2023-12-28T10:12:58;99692.44;;;9.75;81.57
35908;BME280;22003;50.320;8.054;2023-12-28T10:15:23;99678.69;;;10.05;79.95
35908;BME280;22003;50.320;8.054;2023-12-28T10:17:51;99690.50;;;10.13;77.03
35908;BME280;22003;50.320;8.054;2023-12-28T10:20:17;99701.75;;;10.39;77.90
35908;BME280;22003;50.320;8.054;2023-12-28T10:22:43;99693.19;;;10.69;77.54
35908;BME280;22003;50.320;8.054;2023-12-28T10:25:09;99683.22;;;11.16;74.48
35908;BME280;22003;50.320;8.054;2023-12-28T10:27:38;99710.91;;;11.34;74.71
35908;BME280;22003;50.320;8.054;2023-12-28T10:30:04;99689.97;;;11.20;75.07
35908;BME280;22003;50.320;8.054;2023-12-28T10:32:30;99710.09;;;11.22;74.47
35908;BME280;22003;50.320;8.054;2023-12-28T10:34:55;99700.78;;;11.60;73.41
35908;BME280;22003;50.320;8.054;2023-12-28T10:37:21;99723.00;;;11.59;73.20
35908;BME280;22003;50.320;8.054;2023-12-28T10:39:48;99708.03;;;11.26;70.11
35908;BME280;22003;50.320;8.054;2023-12-28T10:42:25;99718.06;;;11.22;72.72
35908;BME280;22003;50.320;8.054;2023-12-28T10:44:55;99736.53;;;11.01;72.90
35908;BME280;22003;50.320;8.054;2023-12-28T10:47:25;99730.28;;;10.91;72.28
35908;BME280;22003;50.320;8.054;2023-12-28T10:49:53;99734.41;;;10.73;72.53
35908;BME280;22003;50.320;8.054;2023-12-28T10:52:20;99714.25;;;10.70;72.67
35908;BME280;22003;50.320;8.054;2023-12-28T10:57:23;99716.38;;;11.10;74.37
35908;BME280;22003;50.320;8.054;2023-12-28T11:00:05;99717.81;;;11.14;72.99
35908;BME280;22003;50.320;8.054;2023-12-28T11:02:38;99720.78;;;11.32;72.84
35908;BME280;22003;50.320;8.054;2023-12-28T11:05:05;99707.28;;;11.35;70.63
35908;BME280;22003;50.320;8.054;2023-12-28T11:07:32;99717.69;;;11.59;71.23
35908;BME280;22003;50.320;8.054;2023-12-28T11:10:00;99698.75;;;11.20;72.11
35908;BME280;22003;50.320;8.054;2023-12-28T11:12:25;99709.50;;;11.19;72.56
35908;BME280;22003;50.320;8.054;2023-12-28T11:14:52;99695.03;;;11.23;71.95
35908;BME280;22003;50.320;8.054;2023-12-28T11:17:19;99690.38;;;11.04;72.67
35908;BME280;22003;50.320;8.054;2023-12-28T11:19:46;99697.00;;;10.98;73.35
35908;BME280;22003;50.320;8.054;2023-12-28T11:22:12;99688.50;;;10.83;74.59
35908;BME280;22003;50.320;8.054;2023-12-28T11:24:39;99708.84;;;10.83;74.49
35908;BME280;22003;50.320;8.054;2023-12-28T11:27:04;99701.06;;;11.14;73.08
35908;BME280;22003;50.320;8.054;2023-12-28T11:29:30;99673.50;;;10.94;71.66
35908;BME280;22003;50.320;8.054;2023-12-28T11:31:59;99687.00;;;11.02;70.90
35908;BME280;22003;50.320;8.054;2023-12-28T11:34:27;99690.31;;;10.83;72.99
35908;BME280;22003;50.320;8.054;2023-12-28T11:36:55;99683.06;;;10.74;71.80
35908;BME280;22003;50.320;8.054;2023-12-28T11:39:29;99683.06;;;10.85;72.78
35908;BME280;22003;50.320;8.054;2023-12-28T11:42:00;99685.44;;;11.10;73.26
35908;BME280;22003;50.320;8.054;2023-12-28T11:44:26;99684.63;;;11.31;70.97
35908;BME280;22003;50.320;8.054;2023-12-28T11:46:51;99680.88;;;11.01;72.32
35908;BME280;22003;50.320;8.054;2023-12-28T11:49:27;99678.91;;;11.15;71.43
35908;BME280;22003;50.320;8.054;2023-12-28T11:51:57;99687.34;;;11.08;70.66
35908;BME280;22003;50.320;8.054;2023-12-28T11:54:24;99688.19;;;11.09;71.51
35908;BME280;22003;50.320;8.054;2023-12-28T11:56:49;99670.94;;;11.15;72.05
35908;BME280;22003;50.320;8.054;2023-12-28T11:59:15;99666.28;;;11.07;72.45
35908;BME280;22003;50.320;8.054;2023-12-28T12:01:40;99655.72;;;11.28;71.64
35908;BME280;22003;50.320;8.054;2023-12-28T12:04:06;99647.84;;;11.05;70.56
35908;BME280;22003;50.320;8.054;2023-12-28T12:06:32;99646.53;;;11.00;71.46
35908;BME280;22003;50.320;8.054;2023-12-28T12:08:57;99648.47;;;11.30;71.35
35908;BME280;22003;50.320;8.054;2023-12-28T12:11:24;99651.25;;;11.60;69.58
35908;BME280;22003;50.320;8.054;2023-12-28T12:13:51;99652.13;;;11.71;68.81
35908;BME280;22003;50.320;8.054;2023-12-28T12:16:17;99628.97;;;11.94;68.72
35908;BME280;22003;50.320;8.054;2023-12-28T12:18:42;99619.44;;;12.12;64.79
35908;BME280;22003;50.320;8.054;2023-12-28T12:21:08;99614.84;;;11.93;67.00
35908;BME280;22003;50.320;8.054;2023-12-28T12:23:33;99622.56;;;12.27;66.47
35908;BME280;22003;50.320;8.054;2023-12-28T12:25:59;99629.00;;;12.24;65.26
35908;BME280;22003;50.320;8.054;2023-12-28T12:28:24;99630.44;;;12.38;65.25
35908;BME280;22003;50.320;8.054;2023-12-28T12:30:54;99610.91;;;11.87;64.57
35908;BME280;22003;50.320;8.054;2023-12-28T12:33:21;99616.94;;;11.69;65.65
35908;BME280;22003;50.320;8.054;2023-12-28T12:35:46;99617.09;;;11.77;64.33
35908;BME280;22003;50.320;8.054;2023-12-28T12:38:12;99620.16;;;11.51;64.73
35908;BME280;22003;50.320;8.054;2023-12-28T12:40:37;99633.75;;;11.79;64.50
35908;BME280;22003;50.320;8.054;2023-12-28T12:43:03;99606.69;;;11.43;65.09
35908;BME280;22003;50.320;8.054;2023-12-28T12:45:28;99598.88;;;11.62;64.17
35908;BME280;22003;50.320;8.054;2023-12-28T12:47:53;99605.47;;;11.68;65.83
35908;BME280;22003;50.320;8.054;2023-12-28T12:50:19;99597.06;;;11.63;64.88
35908;BME280;22003;50.320;8.054;2023-12-28T12:52:44;99595.88;;;11.77;64.53
35908;BME280;22003;50.320;8.054;2023-12-28T12:55:13;99597.59;;;11.78;64.74
35908;BME280;22003;50.320;8.054;2023-12-28T12:57:40;99597.44;;;11.58;64.55
35908;BME280;22003;50.320;8.054;2023-12-28T13:00:06;99600.38;;;11.55;63.99